Terminal Aerodrome Forecast
Issued by NWS

Home | Current Version | Previous Version | Text Only | Print | Product List | Glossary On
Versions: 1 2 3 4 5 6 7 8 9 10 11 12 13
000
FTUS42 TJSJ 181700 RRA
TAFJMZ
TAF
TJMZ 181744Z 1818/1918 09011KT P6SM SCT030 BKN050
     FM182200 06006KT P6SM FEW040
     FM191530 05012KT P6SM VCSH SCT030
      AMD NOT SKED=

USA.gov is the U.S. government's official web portal to all federal, state and local government web resources and services.